KMSN

Dane County Regional-Truax Field Airport

Madison, Wisconsin, USA
METAR KMSN 151253Z 29006KT 7SM -SN OVC035 M05/M09 A2989 RMK AO2 SLP134 P0000 T10501089
Observed Flight Rules
Dec-15 @ 12:53 UTC (an hour ago) Visual Flight Rules
Wind Visibility Clouds Conditions
290° at 6 knots 7 miles
  • Overcast at 3,500' AGL
  • Light Snow
Temperatures Readings Precipitation
Current -5°C / 23°F
Dewpoint -9°C / 16°F
Humidity 74%
Altimeter 29.89" Hg
Pressure 1013.4 hPa
Elevation 261
Current Rain 0.005
METAR KMSN 151253Z 29006KT 7SM -SN OVC035 M05/M09 A2989 RMK AO2 SLP134 P0000 T10501089
Observed Flight Rules
Dec-15 @ 12:53 UTC
(an hour ago)
VFR
Wind Visibility
290° at 6 knots 7 miles
Clouds
  • Overcast at 3,500' AGL
Conditions
  • Light Snow
Temperature Dewpoint
-5°C / 23°F -9°C / 16°F
Humidity Altimeter Pressure
74% 29.89" Hg 1013.4 hPa
Current Rain
0.005